Hauptseite
METAR-TAF:

METAR-TAF

Flughäfen :

Flughafen Karlsbad

Karlsbad, Tschechien

Breite: 50-12N, Länge: 012-55E, Höhe: 603 m

Beobachtung

Neuester Wetterbericht von vor 40 Minuten, um 05:00 UTC
Windstille
Temperatur 14°C
Luftfeuchtigkeit 88%
Luftdruck 1021 hPa
Sichtweite 10 km oder mehr
keine Wolken unter 1500 m und keine Kumulonimbus oder Gewitterwolken

METAR: LKKV 240500Z 00000KT CAVOK 14/12 Q1021

Zeit: 07:40 (05:40 UTC)

Prognose

Neuester Wetterbericht von vor 6 Stunden und 40 Minuten, um 23:00 UTC
Gültige Prognose vom 24 um 00 UTC bis 25 um 00 UTC
Wind 4 kt aus Nordost
Sichtweite 10 km oder mehr
keine Wolken unter 1500 m und keine Kumulonimbus oder Gewitterwolken

TAF: LKKV 232300Z 2400/2500 04004KT CAVOK

Wetterbeobachtungen und Prognosen von mehr als 4000 Flughäfen (METAR und TAF Bericht).

Die verfügbaren Stationen werden durch gelbe und rote Markierungen auf der Karte dargestellt.

Führen Sie die Maus auf sie, um den Namen der Station zu sehen.

Darauf klicken, um die Beobachtung von Wetterbeobachtungen und Prognosen zu sehen.

Um die Karte zu ändern : klicken Sie auf den grünen Tasten mit einem schwarzen Kreuz Zum Vergrößern, auf den grünen Button mit einem Gedankenstrich zu verkleinern, oder auf die grünen Pfeile für benachbarte Karten.


METAR-TAF: